Time;durP1;ratioP1;P1;durP2;ratioP2;P2;SDS_P1;SDS_P2;PMS_P1;PMS_P2;Temp;Humidity;BMP_temperature;BMP_pressure;BME280_temperature;BME280_humidity;BME280_pressure;Samples;Min_cycle;Max_cycle;Signal;HPM_P1;HPM_P2
2022/01/14 00:02:16;;;;;;;72.73;22.50;;;;;;;2.14;99.84;103734.53;5087784;28;20050;-67
2022/01/14 00:04:42;;;;;;;60.20;21.80;;;;;;;2.12;99.49;103731.00;5072609;28;20028;-67
2022/01/14 00:07:09;;;;;;;34.10;22.10;;;;;;;2.15;98.69;103729.34;5071344;28;20037;-67
2022/01/14 00:09:38;;;;;;;50.43;21.37;;;;;;;2.12;98.38;103728.38;5072370;28;20050;-67
2022/01/14 00:12:11;;;;;;;65.80;22.67;;;;;;;2.06;98.01;103731.78;5074363;28;20040;-67
2022/01/14 00:14:41;;;;;;;66.20;21.37;;;;;;;1.98;99.08;103725.50;5071203;28;20525;-67
2022/01/14 00:17:13;;;;;;;58.50;21.83;;;;;;;1.85;99.53;103711.25;5071698;28;20385;-67
2022/01/14 00:19:40;;;;;;;79.97;21.97;;;;;;;1.93;99.28;103724.53;5071244;28;20407;-67
2022/01/14 00:22:10;;;;;;;42.73;22.33;;;;;;;1.93;99.74;103722.78;5071861;28;20051;-67
2022/01/14 00:35:26;;;;;;;48.67;23.17;;;;;;;1.93;99.38;103695.66;5086595;28;20095;-67
2022/01/14 00:37:52;;;;;;;73.43;22.43;;;;;;;1.96;99.64;103699.22;5071994;28;20398;-67
2022/01/14 00:40:17;;;;;;;53.20;22.37;;;;;;;1.97;99.63;103703.63;5071079;28;20032;-67
2022/01/14 00:42:43;;;;;;;54.10;22.30;;;;;;;1.95;99.31;103693.97;5071876;28;20149;-67
2022/01/14 00:45:11;;;;;;;68.30;22.53;;;;;;;1.95;99.88;103701.84;5071303;28;20106;-67
2022/01/14 00:47:39;;;;;;;92.77;23.17;;;;;;;1.96;99.69;103691.34;5083116;28;20035;-67
2022/01/14 00:50:09;;;;;;;51.23;22.00;;;;;;;1.95;99.71;103686.09;5090754;28;20023;-67
2022/01/14 00:52:38;;;;;;;42.50;21.73;;;;;;;1.96;99.77;103686.09;5070000;28;20407;-68
2022/01/14 00:55:05;;;;;;;37.53;22.90;;;;;;;2.00;99.87;103680.06;5070736;28;20384;-67
2022/01/14 01:00:17;;;;;;;52.47;20.83;;;;;;;2.00;99.55;103666.03;5076324;28;20035;-67
2022/01/14 01:02:45;;;;;;;33.47;21.10;;;;;;;2.03;99.37;103663.50;5071538;28;20040;-67
2022/01/14 01:05:13;;;;;;;55.13;20.33;;;;;;;1.96;99.39;103654.59;5069797;28;20067;-67
2022/01/14 01:07:41;;;;;;;42.57;20.53;;;;;;;1.89;99.34;103650.09;5068982;28;20064;-67
2022/01/14 01:10:10;;;;;;;44.43;19.40;;;;;;;1.95;99.21;103665.97;5071466;28;20079;-67
2022/01/14 01:15:12;;;;;;;38.50;20.93;;;;;;;1.94;99.45;103656.34;5070954;28;20043;-67
2022/01/14 01:17:41;;;;;;;31.70;19.33;;;;;;;1.98;99.21;103652.91;5071081;28;20366;-67
2022/01/14 01:20:12;;;;;;;64.63;19.43;;;;;;;2.00;99.13;103656.44;5070841;28;20116;-67
2022/01/14 01:22:38;;;;;;;72.40;19.10;;;;;;;1.94;98.81;103643.22;5069515;28;20547;-67
2022/01/14 01:25:04;;;;;;;54.80;18.80;;;;;;;1.95;98.31;103644.97;5070360;28;20024;-67
2022/01/14 01:27:31;;;;;;;93.10;21.27;;;;;;;1.83;98.48;103647.38;5070815;28;20395;-67
2022/01/14 01:30:13;;;;;;;55.80;19.83;;;;;;;1.77;99.06;103648.16;5070810;28;20021;-67
2022/01/14 01:32:39;;;;;;;42.03;19.00;;;;;;;1.76;99.21;103642.84;5070164;28;20028;-67
2022/01/14 01:35:05;;;;;;;88.23;19.13;;;;;;;1.76;99.04;103643.72;5071229;28;20058;-67
2022/01/14 01:37:30;;;;;;;67.57;17.73;;;;;;;1.80;98.33;103652.56;5070548;28;20024;-67
2022/01/14 01:39:56;;;;;;;76.00;20.37;;;;;;;1.68;98.80;103649.72;5071127;28;20097;-67
2022/01/14 01:42:28;;;;;;;50.17;19.00;;;;;;;1.72;99.37;103647.16;5071011;28;20092;-67
2022/01/14 01:44:54;;;;;;;52.17;19.40;;;;;;;1.76;98.88;103645.47;5070815;28;20017;-68
2022/01/14 01:47:26;;;;;;;93.13;19.83;;;;;;;1.67;98.67;103638.31;5070831;28;20484;-67
2022/01/14 01:49:51;;;;;;;70.40;18.87;;;;;;;1.70;98.65;103635.75;5069710;28;20028;-66
2022/01/14 01:52:19;;;;;;;46.97;18.07;;;;;;;1.65;99.05;103631.28;5069540;28;20502;-67
2022/01/14 01:54:45;;;;;;;99.80;19.27;;;;;;;1.65;98.46;103634.81;5069865;28;20029;-66
2022/01/14 01:57:10;;;;;;;70.50;18.30;;;;;;;1.67;98.26;103632.19;5070342;28;20411;-67
2022/01/14 01:59:36;;;;;;;49.60;18.50;;;;;;;1.56;99.10;103627.63;5070383;28;20087;-67
2022/01/14 02:02:02;;;;;;;43.67;18.27;;;;;;;1.57;99.12;103634.63;5068922;28;20028;-67
2022/01/14 02:04:29;;;;;;;87.07;19.00;;;;;;;1.61;99.06;103640.81;5070731;28;20467;-67
2022/01/14 02:06:56;;;;;;;66.13;19.10;;;;;;;1.58;99.18;103630.28;5070082;28;20108;-67
2022/01/14 02:09:22;;;;;;;97.90;19.80;;;;;;;1.61;99.17;103638.19;5070975;28;20020;-67
2022/01/14 02:11:48;;;;;;;75.73;17.80;;;;;;;1.65;98.48;103636.50;5069205;28;20422;-67
2022/01/14 02:14:53;;;;;;;33.33;18.23;;;;;;;1.68;99.03;103636.59;5070272;28;20024;-67
2022/01/14 02:17:31;;;;;;;78.73;19.87;;;;;;;1.62;99.15;103632.13;5069995;28;20028;-67
2022/01/14 02:22:53;;;;;;;65.07;18.20;;;;;;;1.57;98.77;103626.78;5068925;28;20086;-67
2022/01/14 02:25:28;;;;;;;58.87;17.17;;;;;;;1.46;98.44;103606.44;5069090;28;20017;-67
2022/01/14 02:28:05;;;;;;;37.88;17.27;;;;;;;1.51;99.00;103617.91;5070025;28;20094;-67
2022/01/14 02:30:32;;;;;;;38.73;17.70;;;;;;;1.53;99.16;103618.81;5070919;28;20032;-68
2022/01/14 02:32:58;;;;;;;25.70;17.53;;;;;;;1.62;98.99;103616.38;5071911;28;20020;-67
2022/01/14 02:35:24;;;;;;;54.03;16.63;;;;;;;1.56;98.47;103608.41;5071500;28;20340;-67
2022/01/14 02:37:51;;;;;;;36.30;16.50;;;;;;;1.56;98.68;103604.03;5076626;28;20028;-67
2022/01/14 02:40:18;;;;;;;49.40;18.40;;;;;;;1.53;98.38;103606.59;5075440;28;20032;-67
2022/01/14 02:42:43;;;;;;;26.00;16.57;;;;;;;1.56;98.35;103608.41;5074072;28;20208;-67
2022/01/14 02:45:12;;;;;;;49.83;16.63;;;;;;;1.55;98.70;103597.00;5073760;28;20147;-67
2022/01/14 02:47:41;;;;;;;29.10;16.17;;;;;;;1.57;98.70;103604.91;5074095;28;20487;-67
2022/01/14 02:50:09;;;;;;;30.03;16.37;;;;;;;1.55;98.74;103597.00;5055987;28;20035;-67
2022/01/14 02:53:14;;;;;;;41.43;17.53;;;;;;;1.57;98.20;103602.28;5072403;28;20107;-67
2022/01/14 02:55:31;;;;;;;34.40;16.50;;;;;;;1.53;97.82;103596.09;5072331;28;20491;-66
2022/01/14 02:57:59;;;;;;;61.87;16.90;;;;;;;1.54;98.43;103592.63;5073754;28;20025;-67
2022/01/14 03:00:30;;;;;;;69.63;18.03;;;;;;;1.54;97.84;103591.75;5072630;28;20090;-67
2022/01/14 03:03:00;;;;;;;24.90;15.77;;;;;;;1.56;98.35;103597.91;5073631;28;20027;-66
2022/01/14 03:05:30;;;;;;;47.03;16.77;;;;;;;1.52;98.05;103602.19;5072409;28;20017;-66
2022/01/14 03:07:55;;;;;;;86.25;17.08;;;;;;;1.52;97.74;103603.94;5089622;28;20032;-67
2022/01/14 03:10:21;;;;;;;100.33;18.17;;;;;;;1.37;97.72;103594.03;5073247;28;20028;-67
2022/01/14 03:12:47;;;;;;;74.67;17.27;;;;;;;1.34;97.81;103600.09;5073779;28;20063;-67
2022/01/14 03:15:14;;;;;;;44.63;16.87;;;;;;;1.38;98.43;103592.28;5073121;28;20028;-66
2022/01/14 03:17:40;;;;;;;43.37;17.07;;;;;;;1.38;98.27;103594.91;5073825;28;20114;-67
2022/01/14 03:20:08;;;;;;;37.90;17.73;;;;;;;1.44;98.47;103603.81;5072088;28;20479;-66
2022/01/14 03:22:36;;;;;;;76.13;17.60;;;;;;;1.41;98.21;103598.47;5071995;28;20023;-67
2022/01/14 03:27:52;;;;;;;61.15;17.00;;;;;;;1.41;98.59;103587.97;5070724;28;20035;-66
2022/01/14 03:30:17;;;;;;;51.20;16.47;;;;;;;1.45;98.33;103600.31;5072798;28;20079;-66
2022/01/14 03:32:44;;;;;;;48.67;17.47;;;;;;;1.44;98.24;103597.66;5073017;28;20673;-67
2022/01/14 03:35:11;;;;;;;31.03;16.13;;;;;;;1.49;98.73;103598.63;5073002;28;20125;-67
2022/01/14 03:37:37;;;;;;;32.30;16.47;;;;;;;1.47;98.19;103597.72;5072997;28;20035;-67
2022/01/14 03:40:05;;;;;;;64.23;16.93;;;;;;;1.44;98.26;103601.19;5071507;28;20060;-66
2022/01/14 03:42:31;;;;;;;29.47;15.83;;;;;;;1.49;98.12;103599.50;5073315;28;20075;-67
2022/01/14 03:44:56;;;;;;;58.53;16.30;;;;;;;1.43;97.95;103588.03;5072795;28;20052;-67
2022/01/14 03:47:22;;;;;;;54.37;16.40;;;;;;;1.45;97.95;103599.44;5071097;28;20115;-67
2022/01/14 03:49:47;;;;;;;60.03;16.00;;;;;;;1.47;97.84;103603.88;5072692;28;20115;-66
2022/01/14 03:52:14;;;;;;;28.80;16.60;;;;;;;1.49;97.97;103588.13;5072941;28;20619;-67
2022/01/14 03:54:39;;;;;;;66.83;16.10;;;;;;;1.48;97.76;103591.63;5071385;28;20031;-66
2022/01/14 03:57:05;;;;;;;29.13;17.13;;;;;;;1.53;97.73;103597.81;5071072;28;20416;-67
2022/01/14 03:59:31;;;;;;;31.93;16.80;;;;;;;1.51;97.69;103589.06;5073220;28;20029;-67
2022/01/14 04:01:56;;;;;;;61.37;16.50;;;;;;;1.49;97.76;103599.50;5071895;28;20054;-67
2022/01/14 04:04:22;;;;;;;100.83;16.97;;;;;;;1.47;97.08;103600.31;5072780;28;20502;-67
2022/01/14 04:06:52;;;;;;;91.70;17.00;;;;;;;1.50;97.03;103597.75;5072508;28;20487;-67
2022/01/14 04:09:17;;;;;;;24.08;15.68;;;;;;;1.42;97.46;103586.28;5071460;28;20031;-67
2022/01/14 04:11:45;;;;;;;49.50;16.37;;;;;;;1.45;97.64;103602.06;5071255;28;20120;-67
2022/01/14 04:16:48;;;;;;;90.33;16.77;;;;;;;1.38;97.29;103589.66;5070940;28;20044;-67
2022/01/14 04:19:14;;;;;;;46.77;15.90;;;;;;;1.43;97.24;103591.53;5071993;28;20032;-67
2022/01/14 04:21:40;;;;;;;69.00;16.57;;;;;;;1.41;97.04;103587.09;5072017;28;20063;-67
2022/01/14 04:24:05;;;;;;;61.63;16.47;;;;;;;1.39;97.68;103584.47;5072134;28;20048;-67
2022/01/14 04:26:31;;;;;;;52.47;15.83;;;;;;;1.36;97.56;103582.66;5070804;28;20060;-67
2022/01/14 04:28:56;;;;;;;32.23;15.87;;;;;;;1.37;97.45;103586.16;5071853;28;20399;-67
2022/01/14 04:31:22;;;;;;;49.43;16.07;;;;;;;1.29;97.34;103588.63;5071620;28;20153;-67
2022/01/14 04:33:47;;;;;;;71.17;16.73;;;;;;;1.29;97.69;103583.38;5070752;28;20032;-67
2022/01/14 04:36:14;;;;;;;55.23;16.73;;;;;;;1.36;97.89;103584.41;5071800;28;20048;-67
2022/01/14 04:38:42;;;;;;;56.63;16.33;;;;;;;1.41;97.74;103585.34;5070784;28;20043;-67
2022/01/14 04:41:09;;;;;;;65.97;16.27;;;;;;;1.41;97.41;103580.13;5071208;28;20024;-67
2022/01/14 04:43:35;;;;;;;129.77;17.70;;;;;;;1.39;97.38;103576.59;5071730;28;20024;-67
2022/01/14 04:48:34;;;;;;;78.60;15.90;;;;;;;1.29;96.80;103570.28;5070945;28;20078;-67
2022/01/14 04:51:01;;;;;;;61.30;15.73;;;;;;;1.29;97.34;103559.78;5072154;28;20069;-67
2022/01/14 04:53:31;;;;;;;88.77;15.60;;;;;;;1.25;97.27;103552.72;5072219;28;20356;-67
2022/01/14 04:55:57;;;;;;;69.82;15.23;;;;;;;1.24;97.35;103553.59;5069274;28;20045;-67
2022/01/14 04:58:24;;;;;;;38.13;14.63;;;;;;;1.24;97.68;103558.84;5071585;28;20032;-67
2022/01/14 05:00:49;;;;;;;23.87;15.47;;;;;;;1.31;98.08;103552.84;5071202;28;20028;-66
2022/01/14 05:03:15;;;;;;;92.73;15.03;;;;;;;1.30;96.97;103551.09;5069979;28;20032;-67
2022/01/14 05:05:44;;;;;;;65.00;15.33;;;;;;;1.19;97.32;103541.25;5071368;28;20543;-67
2022/01/14 05:08:12;;;;;;;77.53;15.00;;;;;;;1.17;97.10;103541.22;5071397;28;20043;-67
2022/01/14 05:11:01;;;;;;;41.70;15.07;;;;;;;1.05;97.49;103535.72;5070759;28;20032;-67
2022/01/14 05:13:26;;;;;;;70.70;15.00;;;;;;;1.11;97.24;103538.47;5077391;28;20114;-67
2022/01/14 05:15:53;;;;;;;62.27;13.40;;;;;;;1.13;96.32;103540.28;5070330;28;20059;-67
2022/01/14 05:18:22;;;;;;;33.23;14.67;;;;;;;1.04;97.71;103539.22;5084474;28;20029;-67
2022/01/14 05:20:48;;;;;;;77.15;14.57;;;;;;;0.96;96.98;103532.94;5070985;28;20244;-67
2022/01/14 05:23:14;;;;;;;64.47;14.20;;;;;;;0.96;97.65;103531.19;5069398;28;20025;-67
2022/01/14 05:25:40;;;;;;;45.50;13.73;;;;;;;0.93;98.13;103531.13;5070691;28;20031;-67
2022/01/14 05:28:05;;;;;;;37.07;14.77;;;;;;;0.97;97.90;103530.34;5070754;28;20475;-67
2022/01/14 05:30:33;;;;;;;65.27;14.30;;;;;;;0.95;97.73;103528.56;5070874;28;20031;-67
2022/01/14 05:32:58;;;;;;;41.67;14.00;;;;;;;0.94;97.16;103540.75;5069435;28;20024;-66
2022/01/14 05:35:26;;;;;;;69.83;14.47;;;;;;;0.80;97.38;103522.13;5069287;28;20056;-67
2022/01/14 05:37:54;;;;;;;54.23;13.67;;;;;;;0.84;97.23;103529.19;5053343;28;20024;-67
2022/01/14 05:40:23;;;;;;;29.10;15.23;;;;;;;0.79;98.14;103511.63;5071204;28;20348;-67
2022/01/14 05:42:49;;;;;;;50.17;15.67;;;;;;;0.87;98.12;103528.38;5070661;28;20475;-67
2022/01/14 05:45:18;;;;;;;24.10;14.30;;;;;;;0.84;97.96;103528.31;5069017;28;20031;-67
2022/01/14 05:47:44;;;;;;;61.63;15.63;;;;;;;0.87;97.72;103528.38;5070829;28;20028;-67
2022/01/14 05:50:12;;;;;;;36.30;14.40;;;;;;;0.89;97.80;103516.22;5070550;28;20115;-69
2022/01/14 05:52:39;;;;;;;56.47;15.03;;;;;;;0.88;97.85;103522.28;5069744;28;20086;-67
2022/01/14 05:55:08;;;;;;;33.73;14.07;;;;;;;0.90;97.55;103512.72;5070171;28;20442;-66
2022/01/14 05:57:34;;;;;;;41.73;14.90;;;;;;;0.89;97.59;103513.59;5069919;28;20028;-67
2022/01/14 06:00:03;;;;;;;76.87;15.63;;;;;;;0.84;97.24;103515.22;5070938;28;20036;-67
2022/01/14 06:02:31;;;;;;;25.27;14.10;;;;;;;0.88;97.79;103515.34;5070668;28;20386;-67
2022/01/14 06:04:56;;;;;;;47.20;15.43;;;;;;;0.83;97.38;103511.72;5070333;28;20475;-67
2022/01/14 06:07:22;;;;;;;30.37;16.00;;;;;;;0.87;97.72;103524.03;5070427;28;20037;-67
2022/01/14 06:09:47;;;;;;;35.43;16.33;;;;;;;0.82;97.94;103509.06;5070732;28;20025;-67
2022/01/14 06:12:12;;;;;;;76.67;15.87;;;;;;;0.83;97.37;103521.31;5073221;28;20754;-67
2022/01/14 06:14:38;;;;;;;64.57;15.90;;;;;;;0.83;97.85;103516.09;5074075;28;20030;-69
2022/01/14 06:17:06;;;;;;;46.23;14.93;;;;;;;0.76;97.29;103522.91;5074571;28;20040;-69
2022/01/14 06:19:31;;;;;;;87.40;16.40;;;;;;;0.75;97.51;103534.25;5074229;28;20085;-69
2022/01/14 06:21:57;;;;;;;22.33;15.27;;;;;;;0.81;97.63;103523.03;5074449;28;20037;-69
2022/01/14 06:24:23;;;;;;;40.03;16.33;;;;;;;0.80;97.64;103522.13;5090063;28;20435;-69
2022/01/14 06:26:48;;;;;;;34.40;16.97;;;;;;;0.83;98.27;103523.94;5074199;28;20291;-69
2022/01/14 06:29:14;;;;;;;34.60;15.87;;;;;;;0.86;98.11;103530.13;5073072;28;20382;-69
2022/01/14 06:31:39;;;;;;;62.77;16.73;;;;;;;0.86;97.91;103529.25;5074194;28;20494;-69
2022/01/14 06:34:05;;;;;;;24.27;16.73;;;;;;;0.85;98.09;103531.00;5072797;28;20036;-69
2022/01/14 06:36:30;;;;;;;45.00;16.83;;;;;;;0.87;97.60;103533.63;5072566;28;20083;-69
2022/01/14 06:38:56;;;;;;;23.37;16.50;;;;;;;0.95;98.13;103523.31;5074319;28;20111;-69
2022/01/14 06:41:21;;;;;;;74.23;17.57;;;;;;;0.92;97.85;103523.25;5074188;28;20510;-67
2022/01/14 06:43:46;;;;;;;43.10;16.73;;;;;;;0.86;97.37;103527.50;5072399;28;20071;-66
2022/01/14 06:46:12;;;;;;;49.63;17.77;;;;;;;0.88;98.00;103530.13;5073158;28;20031;-67
2022/01/14 06:48:38;;;;;;;60.20;17.57;;;;;;;0.86;97.41;103530.13;5073813;28;20174;-67
2022/01/14 06:51:03;;;;;;;37.60;16.63;;;;;;;0.89;97.69;103517.09;5073532;28;20143;-67
2022/01/14 06:53:29;;;;;;;42.30;17.67;;;;;;;0.90;97.69;103510.97;5074153;28;20554;-67
2022/01/14 06:55:57;;;;;;;39.77;17.23;;;;;;;0.93;97.59;103514.53;5055517;28;20506;-66
2022/01/14 06:58:22;;;;;;;88.27;18.67;;;;;;;0.90;96.88;103512.72;5072737;28;20947;-67
2022/01/14 07:00:48;;;;;;;72.93;18.87;;;;;;;0.83;97.63;103518.72;5074131;28;20112;-70
2022/01/14 07:03:13;;;;;;;81.87;19.23;;;;;;;0.79;97.49;103522.97;5073218;28;20036;-69
2022/01/14 07:05:39;;;;;;;56.63;19.70;;;;;;;0.83;97.95;103524.81;5071719;28;20552;-69
2022/01/14 07:08:04;;;;;;;80.67;19.83;;;;;;;0.74;97.48;103515.91;5071592;28;20127;-70
2022/01/14 07:10:35;;;;;;;126.17;20.77;;;;;;;0.75;97.34;103517.66;5072856;28;20391;-69
2022/01/14 07:13:01;;;;;;;121.60;22.03;;;;;;;0.69;97.79;103534.13;5072512;28;20081;-69
2022/01/14 07:15:29;;;;;;;99.73;21.33;;;;;;;0.66;97.68;103540.16;5073692;28;20127;-70
2022/01/14 07:17:56;;;;;;;119.83;21.73;;;;;;;0.66;97.68;103534.94;5072904;28;20032;-69
2022/01/14 07:20:21;;;;;;;106.53;22.20;;;;;;;0.66;97.64;103529.69;5073753;28;20043;-70
2022/01/14 07:22:47;;;;;;;34.20;20.63;;;;;;;0.72;98.23;103544.66;5072346;28;20036;-69
2022/01/14 07:25:13;;;;;;;100.23;22.23;;;;;;;0.72;97.81;103549.03;5073239;28;20117;-69
2022/01/14 07:27:39;;;;;;;73.60;20.87;;;;;;;0.74;98.21;103553.44;5071807;28;20024;-69
2022/01/14 07:30:06;;;;;;;37.73;21.90;;;;;;;0.75;98.06;103552.59;5073606;28;20505;-69
2022/01/14 07:32:31;;;;;;;64.23;22.27;;;;;;;0.72;98.17;103549.91;5072449;28;20024;-69
2022/01/14 07:34:57;;;;;;;52.60;22.13;;;;;;;0.72;98.41;103528.94;5055064;28;20483;-68
2022/01/14 07:37:23;;;;;;;81.33;21.63;;;;;;;0.71;97.84;103535.06;5072747;28;20075;-68
2022/01/14 07:39:49;;;;;;;79.87;21.93;;;;;;;0.65;98.42;103541.03;5072831;28;20440;-67
2022/01/14 07:42:15;;;;;;;70.67;22.93;;;;;;;0.63;98.29;103540.09;5072482;28;20036;-67
2022/01/14 07:44:41;;;;;;;65.37;22.87;;;;;;;0.66;98.26;103541.91;5073777;28;20391;-67
2022/01/14 07:47:06;;;;;;;81.13;23.37;;;;;;;0.70;98.19;103538.50;5073124;28;20200;-67
2022/01/14 07:49:32;;;;;;;39.90;22.00;;;;;;;0.73;98.71;103543.78;5073676;28;20063;-70
2022/01/14 07:51:58;;;;;;;79.33;23.67;;;;;;;0.73;98.44;103538.56;5073099;28;20112;-70
2022/01/14 07:54:24;;;;;;;51.33;22.67;;;;;;;0.74;98.24;103532.50;5073496;28;20040;-69
2022/01/14 07:56:52;;;;;;;74.40;23.57;;;;;;;0.71;98.74;103531.53;5073752;28;20060;-69
2022/01/14 07:59:21;;;;;;;59.23;21.63;;;;;;;0.68;98.64;103521.88;5073461;28;20115;-69
2022/01/14 08:01:47;;;;;;;53.03;23.27;;;;;;;0.74;98.83;103521.13;5073383;28;20090;-69
2022/01/14 08:04:15;;;;;;;41.63;22.67;;;;;;;0.90;99.05;103531.06;5073129;28;20170;-69
2022/01/14 08:06:46;;;;;;;67.27;22.00;;;;;;;0.91;98.51;103530.19;5073540;28;20036;-69
2022/01/14 08:09:12;;;;;;;83.03;22.87;;;;;;;0.88;98.26;103527.53;5073010;28;20055;-69
2022/01/14 08:11:38;;;;;;;62.83;22.57;;;;;;;0.88;98.25;103543.25;5073293;28;20463;-69
2022/01/14 08:14:08;;;;;;;42.70;22.43;;;;;;;0.92;98.53;103538.97;5086466;28;20120;-69
2022/01/14 08:16:34;;;;;;;92.18;23.35;;;;;;;0.95;98.03;103537.28;5092245;28;20110;-69
2022/01/14 08:18:59;;;;;;;62.40;22.20;;;;;;;0.98;98.41;103542.59;5093289;28;20107;-69
2022/01/14 08:21:24;;;;;;;95.33;22.63;;;;;;;0.78;97.97;103502.88;5091909;28;20038;-69
2022/01/14 08:23:50;;;;;;;55.00;21.73;;;;;;;0.98;98.24;103542.59;5083114;28;20107;-69
2022/01/14 08:26:15;;;;;;;82.80;22.53;;;;;;;0.98;98.24;103531.22;5072904;28;20020;-69
2022/01/14 08:28:41;;;;;;;53.47;22.03;;;;;;;0.96;98.01;103533.81;5072786;28;20029;-67
2022/01/14 08:31:07;;;;;;;91.87;23.70;;;;;;;0.94;98.09;103524.13;5071881;28;20111;-67
2022/01/14 08:33:32;;;;;;;64.33;22.80;;;;;;;0.93;98.01;103533.75;5071649;28;20457;-67
2022/01/14 08:36:00;;;;;;;91.97;23.80;;;;;;;0.72;98.54;103494.91;5072463;28;20028;-67
2022/01/14 08:38:26;;;;;;;69.00;21.80;;;;;;;0.95;97.74;103511.09;5072329;28;20471;-67
2022/01/14 08:40:52;;;;;;;47.13;23.83;;;;;;;0.91;98.27;103514.47;5054893;28;20028;-67
2022/01/14 08:43:18;;;;;;;44.13;23.93;;;;;;;0.84;98.49;103503.00;5072165;28;20052;-67
2022/01/14 08:45:44;;;;;;;68.37;24.53;;;;;;;0.95;98.71;103518.94;5071195;28;20435;-67
2022/01/14 08:48:09;;;;;;;40.67;24.80;;;;;;;1.04;98.68;103541.84;5070946;28;20036;-67
2022/01/14 08:50:40;;;;;;;68.80;24.13;;;;;;;1.06;98.87;103550.59;5072268;28;20024;-67
2022/01/14 08:53:10;;;;;;;56.07;24.93;;;;;;;1.07;99.26;103552.38;5054532;28;20032;-67
2022/01/14 08:55:39;;;;;;;91.67;24.80;;;;;;;1.08;98.59;103555.00;5071058;28;20041;-67
2022/01/14 08:58:05;;;;;;;51.07;24.83;;;;;;;1.16;99.23;103541.19;5071835;28;20103;-67
2022/01/14 09:00:33;;;;;;;107.77;23.60;;;;;;;1.11;98.35;103531.47;5072284;28;20020;-67
2022/01/14 09:03:01;;;;;;;83.80;23.20;;;;;;;1.14;98.17;103528.03;5072208;28;20040;-67
2022/01/14 09:05:26;;;;;;;58.77;25.37;;;;;;;1.16;98.49;103525.47;5071029;28;20051;-67
2022/01/14 09:07:52;;;;;;;56.63;25.83;;;;;;;1.20;98.92;103524.66;5054284;28;20194;-66
2022/01/14 09:10:21;;;;;;;39.90;24.70;;;;;;;1.22;98.60;103531.69;5070444;28;20032;-66
2022/01/14 09:12:46;;;;;;;40.20;24.70;;;;;;;1.32;99.41;103538.91;5071625;28;20114;-67
2022/01/14 09:15:12;;;;;;;38.40;25.53;;;;;;;1.41;99.23;103537.28;5071820;28;20702;-66
2022/01/14 09:17:40;;;;;;;59.23;24.37;;;;;;;1.35;98.74;103536.34;5070794;28;20025;-68
2022/01/14 09:20:10;;;;;;;67.90;24.43;;;;;;;1.46;98.67;103543.50;5071524;28;20032;-69
2022/01/14 09:22:38;;;;;;;87.30;25.45;;;;;;;1.45;98.33;103537.38;5070673;28;20024;-68
2022/01/14 09:25:05;;;;;;;76.10;25.07;;;;;;;1.41;98.05;103527.66;5071775;28;20036;-68
2022/01/14 09:27:32;;;;;;;77.07;25.87;;;;;;;1.47;98.15;103548.78;5071877;28;20032;-69
2022/01/14 09:29:59;;;;;;;104.67;27.43;;;;;;;1.45;97.99;103541.75;5071709;28;20038;-68
2022/01/14 09:32:25;;;;;;;77.80;25.47;;;;;;;1.43;98.83;103531.22;5070420;28;20500;-68
2022/01/14 09:34:52;;;;;;;43.83;26.63;;;;;;;1.54;98.66;103548.03;5072067;28;20087;-68
2022/01/14 09:37:20;;;;;;;89.17;25.60;;;;;;;1.51;98.58;103534.88;5071124;28;20032;-68
2022/01/14 09:39:45;;;;;;;71.27;24.60;;;;;;;1.59;98.26;103543.75;5071681;28;20031;-68
2022/01/14 09:42:12;;;;;;;79.83;25.70;;;;;;;1.62;98.16;103536.78;5070436;28;20032;-69
2022/01/14 09:44:38;;;;;;;38.17;25.37;;;;;;;1.58;98.40;103526.25;5070182;28;20067;-68
2022/01/14 09:47:06;;;;;;;106.83;26.90;;;;;;;1.59;98.46;103537.63;5071736;28;20025;-68
2022/01/14 09:49:32;;;;;;;39.60;26.27;;;;;;;1.71;98.45;103550.09;5086680;28;20028;-68
2022/01/14 09:51:58;;;;;;;108.00;26.80;;;;;;;1.68;98.44;103547.41;5071490;28;20082;-68
2022/01/14 09:54:26;;;;;;;113.57;27.90;;;;;;;1.69;98.07;103560.53;5071333;28;20044;-68
2022/01/14 09:56:53;;;;;;;65.65;26.17;;;;;;;1.71;98.18;103553.59;5071598;28;20060;-68
2022/01/14 09:59:19;;;;;;;45.40;27.50;;;;;;;1.85;98.72;103547.69;5069744;28;20487;-68
2022/01/14 10:01:46;;;;;;;43.77;27.47;;;;;;;1.95;98.69;103557.50;5071613;28;20483;-68
2022/01/14 10:04:21;;;;;;;40.90;26.23;;;;;;;1.99;98.87;103560.16;5069937;28;20009;-68
2022/01/14 10:06:54;;;;;;;40.97;27.00;;;;;;;2.02;98.60;103568.09;5071474;28;20028;-68
2022/01/14 10:09:34;;;;;;;44.90;26.53;;;;;;;2.01;98.27;103554.97;5071152;28;20032;-68
2022/01/14 10:12:02;;;;;;;49.77;26.23;;;;;;;2.04;98.29;103565.50;5071462;28;20025;-68
2022/01/14 10:14:28;;;;;;;42.23;27.87;;;;;;;2.05;98.25;103568.16;5070867;28;20027;-68
2022/01/14 10:17:00;;;;;;;51.93;27.90;;;;;;;2.12;98.02;103576.13;5053409;28;20162;-69
2022/01/14 10:19:26;;;;;;;49.97;28.10;;;;;;;2.15;98.53;103587.56;5069295;28;20041;-69
2022/01/14 10:21:52;;;;;;;50.13;27.48;;;;;;;2.12;98.25;103584.00;5071424;28;20066;-68
2022/01/14 10:24:19;;;;;;;46.03;28.13;;;;;;;2.17;98.48;103579.72;5071304;28;20103;-68
2022/01/14 10:26:56;;;;;;;46.50;27.03;;;;;;;2.15;98.35;103573.56;5071184;28;20017;-68
2022/01/14 10:29:38;;;;;;;47.97;28.00;;;;;;;2.23;98.05;103580.69;5070977;28;20078;-68
2022/01/14 10:32:05;;;;;;;57.83;26.90;;;;;;;2.15;97.55;103566.56;5069977;28;20043;-68
2022/01/14 10:34:31;;;;;;;45.60;25.90;;;;;;;2.14;97.45;103558.66;5069619;28;20390;-69
2022/01/14 10:37:16;;;;;;;52.20;27.83;;;;;;;2.22;97.77;103572.78;5071289;28;20024;-68
2022/01/14 10:39:54;;;;;;;53.60;28.17;;;;;;;2.19;97.66;103575.38;5069730;28;20029;-68
2022/01/14 10:42:30;;;;;;;47.60;27.40;;;;;;;2.19;97.95;103564.88;5069936;28;20108;-68
2022/01/14 10:45:22;;;;;;;50.83;27.67;;;;;;;2.19;97.94;103557.88;5066882;28;20027;-68
2022/01/14 10:48:04;;;;;;;52.03;28.93;;;;;;;2.27;97.70;103560.63;5070554;28;20105;-68
2022/01/14 10:50:34;;;;;;;47.53;28.37;;;;;;;2.27;97.04;103537.00;5067038;28;20142;-67
2022/01/14 10:53:07;;;;;;;50.97;31.40;;;;;;;2.22;97.71;103557.91;5059980;28;20485;-68
2022/01/14 10:55:39;;;;;;;46.87;29.33;;;;;;;2.21;97.88;103544.78;5075563;28;20044;-68
2022/01/14 10:58:11;;;;;;;48.10;30.03;;;;;;;2.27;97.83;103552.75;5092972;28;20438;-68
2022/01/14 11:00:40;;;;;;;53.77;30.70;;;;;;;2.37;97.84;103541.50;5070571;28;20031;-70
2022/01/14 11:03:06;;;;;;;45.25;28.88;;;;;;;2.35;97.79;103531.84;5081624;28;20086;-70
2022/01/14 11:05:33;;;;;;;45.67;28.90;;;;;;;2.40;98.14;103546.81;5079102;28;20074;-70
2022/01/14 11:08:04;;;;;;;42.13;27.88;;;;;;;2.41;98.13;103550.31;5075340;28;20483;-67
2022/01/14 11:10:33;;;;;;;44.17;29.00;;;;;;;2.42;98.24;103538.97;5073878;28;20078;-68
2022/01/14 11:13:01;;;;;;;43.10;28.48;;;;;;;2.47;98.18;103529.38;5079308;28;20044;-69
2022/01/14 11:15:32;;;;;;;42.58;26.75;;;;;;;2.47;98.31;103527.66;5073568;28;20028;-68
2022/01/14 11:18:01;;;;;;;46.30;28.60;;;;;;;2.45;97.89;103529.38;5072143;28;20095;-68
2022/01/14 11:20:33;;;;;;;47.00;30.20;;;;;;;2.44;98.30;103527.63;5073244;28;20024;-68
2022/01/14 11:23:15;;;;;;;40.30;28.15;;;;;;;2.49;98.61;103532.91;5073593;28;20483;-68
2022/01/14 11:25:55;;;;;;;41.97;27.50;;;;;;;2.54;98.15;103527.75;5072870;28;20058;-68
2022/01/14 11:28:27;;;;;;;44.42;29.10;;;;;;;2.54;98.45;103523.38;5081337;28;20126;-68
2022/01/14 11:30:53;;;;;;;46.10;29.73;;;;;;;2.59;98.82;103518.16;5081062;28;20028;-68
2022/01/14 11:33:19;;;;;;;46.30;30.27;;;;;;;2.59;97.99;103526.94;5092425;28;20098;-68
2022/01/14 11:35:55;;;;;;;46.55;29.25;;;;;;;2.62;98.31;103534.00;5093537;28;20031;-69
2022/01/14 11:38:44;;;;;;;45.15;28.98;;;;;;;2.66;98.44;103525.28;5087729;28;20029;-69
2022/01/14 11:41:52;;;;;;;43.17;27.70;;;;;;;2.69;98.37;103533.19;5073978;28;20036;-69
2022/01/14 11:44:43;;;;;;;39.55;27.80;;;;;;;2.68;97.88;103532.31;5072334;28;20395;-68
2022/01/14 11:47:40;;;;;;;39.88;27.73;;;;;;;2.71;98.63;103527.09;5073608;28;20020;-69
2022/01/14 11:50:28;;;;;;;38.33;26.98;;;;;;;2.76;98.42;103535.03;5078571;28;20028;-69